Time;durP1;ratioP1;P1;durP2;ratioP2;P2;SDS_P1;SDS_P2;PMS_P1;PMS_P2;Temp;Humidity;BMP_temperature;BMP_pressure;BME280_temperature;BME280_humidity;BME280_pressure;Samples;Min_cycle;Max_cycle;Signal;HPM_P1;HPM_P2
2023/06/05 00:01:15;;;;;;;29.98;24.20;;;;;;;15.58;100.00;95483.91;5008343;28;20223;-71
2023/06/05 00:03:43;;;;;;;25.58;21.73;;;;;;;15.62;100.00;95476.88;5008946;28;20216;-69
2023/06/05 00:06:10;;;;;;;26.13;23.30;;;;;;;15.61;100.00;95486.31;5007740;28;20202;-70
2023/06/05 00:08:37;;;;;;;27.73;22.75;;;;;;;15.53;100.00;95485.00;5007269;28;20222;-66
2023/06/05 00:11:03;;;;;;;30.05;22.42;;;;;;;15.50;100.00;95480.84;5006108;28;20206;-70
2023/06/05 00:13:30;;;;;;;24.73;21.38;;;;;;;15.53;100.00;95480.69;5006471;28;20337;-71
2023/06/05 00:15:57;;;;;;;25.05;20.85;;;;;;;15.51;100.00;95479.09;5009219;28;20359;-65
2023/06/05 00:18:25;;;;;;;25.83;22.33;;;;;;;15.52;100.00;95484.16;5007025;28;20493;-67
2023/06/05 00:20:51;;;;;;;25.27;21.20;;;;;;;15.54;100.00;95477.25;5006352;28;20215;-70
2023/06/05 00:23:18;;;;;;;21.90;19.60;;;;;;;15.49;100.00;95486.84;5006466;28;22627;-65
2023/06/05 00:25:45;;;;;;;22.17;19.40;;;;;;;15.45;100.00;95493.03;5006764;28;20348;-72
2023/06/05 00:28:11;;;;;;;21.80;18.88;;;;;;;15.38;100.00;95478.81;5008530;28;21396;-70
2023/06/05 00:30:38;;;;;;;27.88;20.70;;;;;;;15.41;100.00;95488.09;5007130;28;20636;-69
2023/06/05 00:33:05;;;;;;;23.17;19.92;;;;;;;15.34;100.00;95472.22;5006103;28;20257;-67
2023/06/05 00:35:33;;;;;;;22.27;19.88;;;;;;;15.25;100.00;95487.97;5005923;28;20210;-69
2023/06/05 00:38:00;;;;;;;23.20;19.75;;;;;;;15.39;100.00;95479.66;5009437;28;20329;-68
2023/06/05 00:40:27;;;;;;;27.05;19.90;;;;;;;15.49;100.00;95481.75;5007474;28;20203;-66
2023/06/05 00:42:53;;;;;;;21.75;19.27;;;;;;;15.36;100.00;95475.50;5007352;28;20854;-69
2023/06/05 00:45:20;;;;;;;20.88;18.05;;;;;;;15.48;100.00;95474.13;5008383;28;20302;-68
2023/06/05 00:47:47;;;;;;;21.20;19.00;;;;;;;15.40;100.00;95477.03;5008893;28;20260;-68
2023/06/05 00:50:15;;;;;;;22.00;16.80;;;;;;;15.35;100.00;95471.28;5007592;28;20213;-69
2023/06/05 00:52:43;;;;;;;18.85;16.98;;;;;;;15.27;100.00;95453.72;5008084;28;21161;-69
2023/06/05 00:55:11;;;;;;;16.70;15.07;;;;;;;15.19;100.00;95462.63;5008228;28;20226;-69
2023/06/05 00:57:39;;;;;;;17.17;15.55;;;;;;;15.30;100.00;95466.38;5009666;28;20364;-69
2023/06/05 01:00:08;;;;;;;17.10;15.48;;;;;;;15.30;100.00;95463.81;5009947;28;20207;-70
2023/06/05 01:02:37;;;;;;;15.27;13.73;;;;;;;15.29;100.00;95474.13;5007281;28;20757;-69
2023/06/05 01:05:04;;;;;;;15.60;13.98;;;;;;;15.16;100.00;95470.44;5009436;28;20209;-68
2023/06/05 01:07:32;;;;;;;17.65;15.40;;;;;;;15.31;100.00;95477.47;5009789;28;20217;-71
2023/06/05 01:10:01;;;;;;;17.60;14.45;;;;;;;15.28;100.00;95464.78;5006476;28;20290;-68
2023/06/05 01:12:34;;;;;;;16.42;14.82;;;;;;;15.37;100.00;95455.84;5006648;28;20243;-66
2023/06/05 01:15:03;;;;;;;15.98;14.38;;;;;;;15.49;100.00;95456.13;5008831;28;20710;-68
2023/06/05 01:17:32;;;;;;;16.42;14.55;;;;;;;15.53;99.65;95456.81;5008725;28;20206;-70
2023/06/05 01:20:08;;;;;;;15.57;13.98;;;;;;;15.41;100.00;95450.50;5008523;28;20604;-68
2023/06/05 01:22:37;;;;;;;14.98;13.48;;;;;;;15.28;100.00;95452.00;5005115;28;20720;-69
2023/06/05 01:25:07;;;;;;;17.23;14.88;;;;;;;15.09;100.00;95448.63;5007982;28;20740;-68
2023/06/05 01:27:42;;;;;;;14.82;13.32;;;;;;;15.20;100.00;95439.53;5008416;28;20215;-67
2023/06/05 01:30:16;;;;;;;21.23;15.75;;;;;;;15.35;100.00;95437.16;5007526;28;20216;-67
2023/06/05 01:32:48;;;;;;;14.65;13.15;;;;;;;15.17;100.00;95434.53;5005842;28;20203;-67
2023/06/05 01:35:17;;;;;;;15.10;13.43;;;;;;;15.11;100.00;95439.09;5006985;28;20880;-67
2023/06/05 01:37:48;;;;;;;14.75;13.38;;;;;;;15.09;100.00;95425.56;5007719;28;20234;-68
2023/06/05 01:40:20;;;;;;;15.90;13.25;;;;;;;15.00;100.00;95431.09;5008429;28;20276;-69
2023/06/05 01:42:48;;;;;;;14.65;13.30;;;;;;;15.13;100.00;95429.63;5007044;28;20230;-68
2023/06/05 01:45:16;;;;;;;16.02;13.88;;;;;;;14.97;100.00;95435.44;5006864;28;20297;-69
2023/06/05 01:47:43;;;;;;;15.90;14.25;;;;;;;14.94;100.00;95432.19;5008935;28;20214;-70
2023/06/05 01:50:12;;;;;;;14.52;13.23;;;;;;;14.84;100.00;95436.06;5008121;28;20265;-68
2023/06/05 01:52:41;;;;;;;15.00;13.05;;;;;;;14.87;100.00;95435.91;5006895;28;20206;-68
2023/06/05 01:55:14;;;;;;;13.98;12.55;;;;;;;14.78;100.00;95429.50;5007195;28;20195;-65
2023/06/05 01:57:43;;;;;;;15.98;13.23;;;;;;;14.85;100.00;95435.16;5006090;28;20766;-70
2023/06/05 02:00:13;;;;;;;14.60;13.30;;;;;;;14.81;100.00;95437.03;5008077;28;20304;-69
2023/06/05 02:02:41;;;;;;;19.33;12.93;;;;;;;14.77;100.00;95429.56;5007047;28;20258;-67
2023/06/05 02:05:08;;;;;;;13.93;12.65;;;;;;;14.68;100.00;95441.03;5007490;28;20211;-65
2023/06/05 02:07:38;;;;;;;15.10;12.60;;;;;;;14.79;100.00;95438.84;5007800;28;20653;-68
2023/06/05 02:10:05;;;;;;;14.27;12.77;;;;;;;14.75;100.00;95442.41;5006946;28;20753;-68
2023/06/05 02:12:32;;;;;;;14.00;12.68;;;;;;;14.64;100.00;95436.94;5007185;28;20333;-67
2023/06/05 02:15:00;;;;;;;16.60;13.65;;;;;;;14.69;100.00;95437.56;5007878;28;20302;-64
2023/06/05 02:17:27;;;;;;;15.07;13.25;;;;;;;14.70;100.00;95433.28;5006856;28;20748;-67
2023/06/05 02:19:53;;;;;;;14.75;12.98;;;;;;;14.66;100.00;95439.41;5006472;28;20304;-65
2023/06/05 02:22:23;;;;;;;13.48;12.27;;;;;;;14.65;100.00;95433.47;5005682;28;20238;-66
2023/06/05 02:24:50;;;;;;;13.82;12.65;;;;;;;14.56;100.00;95439.00;5008839;28;20246;-69
2023/06/05 02:27:16;;;;;;;17.15;12.45;;;;;;;14.50;100.00;95431.59;5008708;28;20298;-67
2023/06/05 02:29:43;;;;;;;17.25;14.52;;;;;;;14.52;100.00;95434.91;5010445;28;20264;-67
2023/06/05 02:32:11;;;;;;;19.13;12.18;;;;;;;14.56;100.00;95441.56;5009042;28;20226;-67
2023/06/05 02:34:38;;;;;;;13.45;12.15;;;;;;;14.59;100.00;95444.81;5007873;28;20294;-65
2023/06/05 02:37:05;;;;;;;13.50;11.90;;;;;;;14.61;100.00;95440.44;5009590;28;20235;-69
2023/06/05 02:39:33;;;;;;;13.32;11.90;;;;;;;14.60;100.00;95441.34;5011064;28;20757;-67
2023/06/05 02:42:00;;;;;;;13.98;12.70;;;;;;;14.53;100.00;95434.03;5011648;28;20226;-67
2023/06/05 02:44:27;;;;;;;14.23;12.38;;;;;;;14.56;100.00;95436.44;5010421;28;20633;-67
2023/06/05 02:46:53;;;;;;;15.82;12.75;;;;;;;14.56;100.00;95439.00;5010700;28;20503;-67
2023/06/05 02:49:21;;;;;;;36.88;14.40;;;;;;;14.55;100.00;95439.91;5009930;28;21729;-67
2023/06/05 02:51:48;;;;;;;14.32;13.13;;;;;;;14.56;100.00;95439.84;5011419;28;20222;-66
2023/06/05 02:54:15;;;;;;;14.80;13.30;;;;;;;14.46;100.00;95435.16;5009597;28;20277;-67
2023/06/05 02:56:43;;;;;;;14.30;12.55;;;;;;;14.47;100.00;95436.81;5012066;28;20263;-68
2023/06/05 02:59:10;;;;;;;14.60;12.40;;;;;;;14.54;100.00;95438.25;5011831;28;20203;-68
2023/06/05 03:01:37;;;;;;;14.63;12.73;;;;;;;14.52;100.00;95445.97;5012007;28;20317;-68
2023/06/05 03:04:03;;;;;;;13.98;12.55;;;;;;;14.46;100.00;95445.41;5010646;28;20281;-67
2023/06/05 03:06:34;;;;;;;14.38;12.85;;;;;;;14.78;100.00;95447.41;5012281;28;20298;-69
2023/06/05 03:09:02;;;;;;;15.35;13.93;;;;;;;14.71;100.00;95440.06;5010765;28;20207;-66
2023/06/05 03:11:29;;;;;;;14.43;12.35;;;;;;;14.73;100.00;95453.63;5012049;28;20221;-68
2023/06/05 03:13:56;;;;;;;15.18;13.77;;;;;;;14.84;100.00;95449.69;5010215;28;20612;-65
2023/06/05 03:16:23;;;;;;;15.70;13.20;;;;;;;14.81;100.00;95452.38;5011048;28;20203;-68
2023/06/05 03:18:50;;;;;;;14.32;12.82;;;;;;;14.84;100.00;95452.25;5012118;28;20211;-69
2023/06/05 03:21:16;;;;;;;16.83;13.93;;;;;;;14.82;100.00;95456.63;5011385;28;20215;-70
2023/06/05 03:23:44;;;;;;;15.73;13.60;;;;;;;14.97;99.91;95453.38;5009957;28;20293;-65
2023/06/05 03:26:11;;;;;;;15.27;13.65;;;;;;;15.08;99.29;95460.56;5011785;28;20595;-67
2023/06/05 03:28:38;;;;;;;16.45;12.80;;;;;;;15.25;99.25;95465.75;5011839;28;20286;-69
2023/06/05 03:31:04;;;;;;;17.48;13.13;;;;;;;15.58;98.92;95465.97;5011237;28;20203;-65
2023/06/05 03:33:31;;;;;;;14.65;13.15;;;;;;;16.09;95.74;95463.53;5009980;28;20654;-66
2023/06/05 03:35:59;;;;;;;15.18;12.98;;;;;;;16.75;92.79;95471.41;5008298;28;20505;-69
2023/06/05 03:38:26;;;;;;;13.10;10.52;;;;;;;17.24;89.00;95469.66;5010526;28;20637;-68
2023/06/05 03:40:54;;;;;;;12.77;11.43;;;;;;;17.36;86.96;95458.72;5012504;28;20207;-66
2023/06/05 03:43:21;;;;;;;14.13;11.93;;;;;;;17.57;85.81;95485.81;5009432;28;20854;-69
2023/06/05 03:45:48;;;;;;;13.40;12.02;;;;;;;17.42;85.45;95478.97;5009413;28;20718;-69
2023/06/05 03:48:15;;;;;;;28.23;23.00;;;;;;;17.22;86.75;95468.91;5010615;28;20301;-68
2023/06/05 03:50:42;;;;;;;14.57;13.10;;;;;;;17.23;87.93;95462.88;5014418;28;20329;-65
2023/06/05 03:53:10;;;;;;;15.38;13.73;;;;;;;17.38;87.26;95462.03;5010287;28;20671;-68
2023/06/05 03:55:41;;;;;;;19.27;13.82;;;;;;;17.30;88.51;95465.03;5012439;28;20238;-70
2023/06/05 03:58:14;;;;;;;14.85;12.20;;;;;;;17.44;87.44;95464.28;5013133;28;20331;-67
2023/06/05 04:00:42;;;;;;;14.52;11.77;;;;;;;17.54;87.04;95473.16;5013005;28;20211;-69
2023/06/05 04:03:10;;;;;;;13.95;12.55;;;;;;;17.63;86.24;95466.69;5011440;28;20619;-69
2023/06/05 04:05:37;;;;;;;17.65;12.02;;;;;;;17.72;86.32;95473.09;5009559;28;20195;-67
2023/06/05 04:08:04;;;;;;;14.70;13.18;;;;;;;17.83;86.68;95478.47;5012340;28;20933;-70
2023/06/05 04:10:31;;;;;;;15.30;11.88;;;;;;;18.03;87.20;95475.63;5010518;28;20223;-69
2023/06/05 04:12:58;;;;;;;12.32;11.20;;;;;;;18.49;86.06;95470.44;5014828;28;20777;-70
2023/06/05 04:15:27;;;;;;;13.65;12.15;;;;;;;18.97;83.53;95469.31;5012872;28;20288;-72
2023/06/05 04:17:53;;;;;;;12.52;11.30;;;;;;;19.22;81.00;95479.78;5012094;28;20293;-72
2023/06/05 04:20:21;;;;;;;14.02;12.68;;;;;;;19.44;80.44;95478.47;5011236;28;20269;-70
2023/06/05 04:22:48;;;;;;;33.92;27.42;;;;;;;19.51;79.76;95483.19;5009853;28;20226;-70
2023/06/05 04:25:15;;;;;;;35.22;25.38;;;;;;;19.60;80.13;95477.44;5008078;28;20211;-70
2023/06/05 04:27:44;;;;;;;25.20;18.63;;;;;;;19.92;79.17;95474.59;5009305;28;20690;-69
2023/06/05 04:30:12;;;;;;;20.85;14.43;;;;;;;20.25;78.03;95471.63;5011565;28;20315;-70
2023/06/05 04:32:41;;;;;;;25.90;14.77;;;;;;;20.11;77.84;95469.91;5017912;28;20202;-71
2023/06/05 04:35:09;;;;;;;19.38;12.45;;;;;;;19.95;78.27;95453.78;5017301;28;20215;-69
2023/06/05 04:37:37;;;;;;;16.88;13.02;;;;;;;19.76;79.46;95468.78;5010268;28;20321;-70
2023/06/05 04:40:05;;;;;;;17.05;13.35;;;;;;;19.21;81.06;95464.44;5011945;28;20438;-70
2023/06/05 04:42:32;;;;;;;69.85;47.92;;;;;;;18.87;82.74;95468.19;5011103;28;20230;-68
2023/06/05 04:45:00;;;;;;;29.23;24.90;;;;;;;18.65;83.80;95464.31;5010060;28;20210;-68
2023/06/05 04:47:27;;;;;;;31.08;21.85;;;;;;;18.60;84.33;95461.19;5012268;28;20203;-70
2023/06/05 04:49:55;;;;;;;26.60;14.93;;;;;;;18.64;84.86;95466.97;5015873;28;20231;-66
2023/06/05 04:52:23;;;;;;;18.70;14.55;;;;;;;18.68;84.35;95473.63;5017610;28;20708;-69
2023/06/05 04:54:50;;;;;;;15.48;13.98;;;;;;;18.60;84.53;95466.31;5012053;28;20229;-70
2023/06/05 04:57:18;;;;;;;18.65;14.55;;;;;;;18.57;85.30;95470.78;5013879;28;20244;-68
2023/06/05 04:59:45;;;;;;;18.15;15.38;;;;;;;18.65;85.20;95468.63;5013258;28;20687;-69
2023/06/05 05:02:12;;;;;;;16.65;14.95;;;;;;;18.80;85.15;95466.94;5013807;28;20237;-73
2023/06/05 05:04:39;;;;;;;16.70;14.25;;;;;;;19.16;83.20;95471.59;5014290;28;20215;-69
2023/06/05 05:07:07;;;;;;;16.02;14.23;;;;;;;19.54;82.36;95470.13;5008729;28;20318;-65
2023/06/05 05:09:34;;;;;;;16.70;14.27;;;;;;;19.83;80.40;95478.59;5008838;28;20578;-69
2023/06/05 05:12:00;;;;;;;20.67;14.95;;;;;;;20.28;79.33;95472.25;5009569;28;20289;-70
2023/06/05 05:14:27;;;;;;;18.35;13.40;;;;;;;20.74;77.99;95469.22;5009540;28;20348;-74
2023/06/05 05:16:55;;;;;;;16.05;14.32;;;;;;;21.05;74.60;95478.31;5008897;28;20290;-69
2023/06/05 05:19:21;;;;;;;20.45;14.23;;;;;;;20.97;74.51;95465.91;5011087;28;20635;-70
2023/06/05 05:21:49;;;;;;;17.45;14.05;;;;;;;21.12;74.05;95473.53;5011653;28;20230;-69
2023/06/05 05:24:17;;;;;;;19.15;13.65;;;;;;;21.47;74.21;95468.56;5008509;28;20236;-67
2023/06/05 05:26:44;;;;;;;16.90;13.82;;;;;;;22.05;72.23;95465.25;5009534;28;21203;-72
2023/06/05 05:29:10;;;;;;;15.20;13.05;;;;;;;22.47;70.70;95460.47;5011080;28;20217;-71
2023/06/05 05:31:37;;;;;;;19.70;13.45;;;;;;;22.85;69.17;95466.22;5010872;28;21104;-68
2023/06/05 05:34:05;;;;;;;15.05;12.85;;;;;;;22.99;68.63;95460.84;5012485;28;20404;-68
2023/06/05 05:36:33;;;;;;;13.15;11.75;;;;;;;22.75;67.82;95447.13;5013633;28;20241;-67
2023/06/05 05:39:00;;;;;;;12.52;11.27;;;;;;;22.71;68.04;95463.84;5011399;28;20371;-67
2023/06/05 05:41:28;;;;;;;12.80;11.80;;;;;;;22.02;70.07;95455.16;5010794;28;20269;-66
2023/06/05 05:43:55;;;;;;;15.43;13.90;;;;;;;21.71;72.15;95449.56;5009257;28;20295;-72
2023/06/05 05:46:22;;;;;;;15.32;11.82;;;;;;;22.05;71.84;95466.09;5009307;28;20261;-68
2023/06/05 05:48:49;;;;;;;16.33;13.43;;;;;;;22.03;70.87;95462.78;5009361;28;20207;-66
2023/06/05 05:51:15;;;;;;;21.50;12.98;;;;;;;22.46;71.39;95458.84;5009122;28;20333;-73
2023/06/05 05:53:42;;;;;;;21.45;12.90;;;;;;;23.17;67.12;95460.38;5010337;28;21474;-67
2023/06/05 05:56:09;;;;;;;14.38;12.45;;;;;;;23.36;66.40;95455.41;5011681;28;20206;-70
2023/06/05 05:58:37;;;;;;;13.35;12.10;;;;;;;23.74;65.29;95448.06;5012783;28;20260;-67
2023/06/05 06:01:04;;;;;;;14.23;12.77;;;;;;;23.31;66.37;95447.16;5012028;28;20261;-66
2023/06/05 06:03:32;;;;;;;16.10;12.80;;;;;;;23.00;68.10;95444.34;5011651;28;20833;-69
2023/06/05 06:05:59;;;;;;;15.70;13.70;;;;;;;23.12;67.69;95446.94;5012261;28;21881;-69
2023/06/05 06:08:26;;;;;;;15.25;13.10;;;;;;;22.66;69.93;95447.81;5012516;28;20242;-74
2023/06/05 06:10:54;;;;;;;14.57;12.38;;;;;;;23.01;69.10;95440.78;5012342;28;20218;-73
2023/06/05 06:13:21;;;;;;;14.43;12.75;;;;;;;23.43;66.59;95451.41;5011800;28;21695;-69
2023/06/05 06:15:49;;;;;;;12.27;11.18;;;;;;;22.82;67.63;95450.91;5013150;28;20298;-70
2023/06/05 06:18:16;;;;;;;15.10;11.70;;;;;;;22.02;71.11;95455.94;5013501;28;20294;-69
2023/06/05 06:20:43;;;;;;;16.90;12.43;;;;;;;21.36;74.85;95451.19;5012222;28;20348;-69
2023/06/05 06:23:09;;;;;;;12.75;11.63;;;;;;;21.52;75.04;95449.22;5009765;28;20227;-67
2023/06/05 06:25:38;;;;;;;16.23;11.45;;;;;;;21.46;74.36;95452.22;5010749;28;20369;-66
2023/06/05 06:28:05;;;;;;;12.38;11.18;;;;;;;21.20;74.14;95437.66;5010038;28;20233;-66
2023/06/05 06:30:32;;;;;;;13.45;11.93;;;;;;;20.99;75.52;95442.56;5009592;28;21822;-67
2023/06/05 06:33:00;;;;;;;12.63;11.32;;;;;;;21.45;74.12;95440.22;5010642;28;20268;-68
2023/06/05 06:35:27;;;;;;;18.52;12.70;;;;;;;21.83;72.02;95441.84;5010708;28;20207;-65
2023/06/05 06:37:56;;;;;;;11.90;10.73;;;;;;;21.73;71.71;95441.69;5011951;28;20239;-70
2023/06/05 06:40:23;;;;;;;13.07;11.60;;;;;;;21.40;73.18;95442.31;5011539;28;20213;-69
2023/06/05 06:42:50;;;;;;;13.57;12.27;;;;;;;21.43;72.38;95442.09;5009349;28;20287;-71
2023/06/05 06:45:17;;;;;;;12.18;11.07;;;;;;;21.42;71.94;95445.59;5011526;28;20620;-66
2023/06/05 06:47:44;;;;;;;13.57;11.43;;;;;;;22.36;69.79;95432.78;5011939;28;20202;-71
2023/06/05 06:50:13;;;;;;;19.17;11.95;;;;;;;23.05;66.81;95433.59;5012534;28;20730;-66
2023/06/05 06:52:40;;;;;;;12.38;11.27;;;;;;;22.84;67.48;95427.47;5011583;28;20210;-67
2023/06/05 06:55:07;;;;;;;12.27;11.15;;;;;;;23.17;65.44;95431.84;5014073;28;20229;-65
2023/06/05 06:57:34;;;;;;;14.95;11.43;;;;;;;23.63;63.70;95432.50;5011429;28;20234;-70
2023/06/05 07:00:00;;;;;;;15.15;12.05;;;;;;;24.16;62.86;95429.97;5011567;28;20302;-67
2023/06/05 07:02:27;;;;;;;13.80;12.00;;;;;;;24.15;61.79;95423.13;5011702;28;20330;-65
2023/06/05 07:04:54;;;;;;;12.10;11.20;;;;;;;24.10;61.08;95409.69;5011216;28;21690;-67
2023/06/05 07:07:22;;;;;;;12.27;11.07;;;;;;;23.87;62.19;95427.13;5011288;28;20222;-65
2023/06/05 07:09:50;;;;;;;12.77;11.73;;;;;;;23.90;62.60;95423.47;5010408;28;20432;-70
2023/06/05 07:12:19;;;;;;;13.32;11.70;;;;;;;24.99;58.71;95424.78;5009856;28;20207;-71
2023/06/05 07:14:46;;;;;;;17.48;12.35;;;;;;;25.83;56.62;95424.50;5009714;28;20206;-70
2023/06/05 07:17:13;;;;;;;19.73;12.48;;;;;;;25.60;56.10;95421.31;5009383;28;20206;-69
2023/06/05 07:19:46;;;;;;;16.70;12.43;;;;;;;24.98;58.09;95427.56;5019268;28;20206;-65
2023/06/05 07:22:16;;;;;;;14.45;13.00;;;;;;;25.82;56.24;95413.28;5016687;28;20302;-65
2023/06/05 07:24:55;;;;;;;13.55;12.25;;;;;;;28.74;49.95;95411.72;5028198;28;20519;-64
2023/06/05 07:27:22;;;;;;;11.57;10.57;;;;;;;29.42;46.88;95416.22;5016266;28;20202;-68
2023/06/05 07:29:48;;;;;;;12.48;11.38;;;;;;;29.98;45.86;95425.22;5020460;28;20209;-67
2023/06/05 07:32:15;;;;;;;14.73;12.15;;;;;;;30.32;44.53;95419.88;5015730;28;20757;-65
2023/06/05 07:34:42;;;;;;;12.45;11.15;;;;;;;29.15;46.04;95424.25;5018815;28;21199;-67
2023/06/05 07:37:09;;;;;;;14.07;12.77;;;;;;;28.44;48.72;95436.53;5015783;28;20781;-65
2023/06/05 07:39:36;;;;;;;13.68;12.25;;;;;;;27.46;50.06;95428.66;5013325;28;20907;-66
2023/06/05 07:42:05;;;;;;;14.15;12.63;;;;;;;27.32;50.91;95436.94;5011588;28;20206;-65
2023/06/05 07:44:32;;;;;;;16.98;12.48;;;;;;;27.27;51.02;95441.78;5026585;28;20230;-74
2023/06/05 07:46:59;;;;;;;13.88;11.60;;;;;;;28.85;48.12;95438.66;5026388;28;20317;-64
2023/06/05 07:49:26;;;;;;;12.85;11.35;;;;;;;28.51;48.31;95447.19;5018802;28;21416;-70
2023/06/05 07:51:52;;;;;;;12.55;11.43;;;;;;;27.33;50.55;95438.59;5018980;28;20222;-67
2023/06/05 07:54:21;;;;;;;14.43;13.00;;;;;;;27.38;51.61;95437.19;5016428;28;20294;-66
2023/06/05 07:56:51;;;;;;;14.02;12.38;;;;;;;26.28;53.51;95443.84;5011278;28;20316;-70
2023/06/05 07:59:24;;;;;;;14.82;12.38;;;;;;;25.53;56.35;95449.63;5011773;28;21095;-71
2023/06/05 08:01:51;;;;;;;15.02;12.73;;;;;;;25.29;57.03;95441.34;5011725;28;20284;-66
2023/06/05 08:04:19;;;;;;;13.25;11.95;;;;;;;25.13;57.60;95441.00;5014362;28;20225;-66
2023/06/05 08:06:46;;;;;;;14.35;11.82;;;;;;;25.92;56.04;95442.78;5021559;28;20213;-66
2023/06/05 08:09:12;;;;;;;14.40;13.00;;;;;;;26.72;53.42;95434.66;5017164;28;20203;-69
2023/06/05 08:11:40;;;;;;;13.60;12.23;;;;;;;27.60;51.21;95435.19;5014693;28;20299;-70
2023/06/05 08:14:06;;;;;;;16.88;12.13;;;;;;;27.25;51.70;95441.91;5009058;28;20241;-68
2023/06/05 08:16:36;;;;;;;15.95;12.40;;;;;;;26.40;53.52;95440.19;5011788;28;20297;-68
2023/06/05 08:19:04;;;;;;;15.10;12.27;;;;;;;26.50;53.53;95444.56;5009292;28;21005;-66
2023/06/05 08:21:31;;;;;;;15.27;13.70;;;;;;;26.86;53.47;95441.22;5008015;28;20241;-68
2023/06/05 08:23:57;;;;;;;15.57;12.30;;;;;;;27.08;52.33;95440.91;5010876;28;20203;-66
2023/06/05 08:26:25;;;;;;;16.13;12.30;;;;;;;26.48;52.34;95441.28;5009638;28;20195;-64
2023/06/05 08:28:52;;;;;;;15.07;12.48;;;;;;;26.17;54.14;95446.63;5008678;28;20211;-68
2023/06/05 08:31:18;;;;;;;13.52;12.20;;;;;;;26.97;52.32;95448.91;5007671;28;20211;-68
2023/06/05 08:33:46;;;;;;;15.25;11.52;;;;;;;28.28;48.83;95452.06;5007751;28;21633;-63
2023/06/05 08:36:13;;;;;;;13.27;11.98;;;;;;;27.51;50.37;95460.34;5009142;28;20740;-64
2023/06/05 08:38:40;;;;;;;18.65;12.27;;;;;;;26.13;54.28;95458.28;5013799;28;20220;-65
2023/06/05 08:41:10;;;;;;;13.57;12.20;;;;;;;25.35;56.36;95457.25;5011932;28;20230;-61
2023/06/05 08:43:38;;;;;;;15.48;12.48;;;;;;;24.96;57.66;95451.09;5012559;28;20226;-65
2023/06/05 08:46:06;;;;;;;14.10;12.23;;;;;;;25.10;58.24;95457.69;5018046;28;20198;-64
2023/06/05 08:48:38;;;;;;;12.80;10.93;;;;;;;26.14;55.60;95457.31;5017668;28;20328;-65
2023/06/05 08:51:10;;;;;;;11.90;10.80;;;;;;;27.00;52.22;95451.22;5019856;28;20231;-62
2023/06/05 08:53:40;;;;;;;15.50;12.32;;;;;;;26.29;54.03;95444.69;5010606;28;20229;-67
2023/06/05 08:56:08;;;;;;;12.75;11.65;;;;;;;25.64;54.94;95453.94;5009138;28;20214;-67
2023/06/05 08:58:36;;;;;;;15.80;12.68;;;;;;;26.33;54.63;95444.31;5007584;28;20383;-65
2023/06/05 09:01:03;;;;;;;12.65;11.35;;;;;;;27.69;51.22;95442.97;5008244;28;20790;-65
2023/06/05 09:03:30;;;;;;;12.63;11.43;;;;;;;28.59;49.01;95444.66;5009494;28;20203;-66
2023/06/05 09:05:56;;;;;;;12.32;11.25;;;;;;;27.38;50.51;95437.19;5008650;28;20199;-65
2023/06/05 09:08:32;;;;;;;14.63;11.55;;;;;;;26.22;53.51;95456.63;5006560;28;20211;-65
2023/06/05 09:11:20;;;;;;;17.02;12.07;;;;;;;25.02;56.66;95447.94;5014745;28;20206;-65
2023/06/05 09:13:47;;;;;;;12.65;11.35;;;;;;;25.13;56.75;95434.03;5014625;28;20211;-65
2023/06/05 09:16:14;;;;;;;12.45;10.98;;;;;;;26.14;53.83;95444.28;5012538;28;20603;-70
2023/06/05 09:18:53;;;;;;;13.27;10.43;;;;;;;26.83;52.07;95444.09;5010067;28;21804;-63
2023/06/05 09:21:19;;;;;;;13.30;11.90;;;;;;;26.89;51.14;95446.16;5010118;28;20203;-70
2023/06/05 09:23:47;;;;;;;13.63;10.82;;;;;;;27.40;49.88;95444.88;5009446;28;20320;-71
2023/06/05 09:26:15;;;;;;;11.68;10.57;;;;;;;27.36;50.71;95440.91;5008355;28;20408;-67
2023/06/05 09:28:54;;;;;;;12.10;10.90;;;;;;;26.81;52.55;95438.19;5009462;28;20207;-73
2023/06/05 09:31:23;;;;;;;12.73;11.10;;;;;;;26.01;52.88;95438.50;5009998;28;20380;-70
2023/06/05 09:33:57;;;;;;;12.18;10.95;;;;;;;25.07;55.70;95448.38;5008169;28;20207;-66
2023/06/05 09:36:26;;;;;;;14.32;11.50;;;;;;;24.84;57.19;95446.88;5009639;28;20238;-69
2023/06/05 09:38:54;;;;;;;14.65;10.85;;;;;;;25.88;55.48;95448.38;5008624;28;20794;-66
2023/06/05 09:41:21;;;;;;;15.35;11.38;;;;;;;26.74;52.47;95444.94;5009487;28;20283;-69
2023/06/05 09:43:49;;;;;;;12.13;10.90;;;;;;;27.00;51.53;95432.13;5007801;28;21257;-73
2023/06/05 09:46:17;;;;;;;14.07;9.80;;;;;;;27.33;51.02;95436.00;5007018;28;20310;-65
2023/06/05 09:48:53;;;;;;;11.55;10.45;;;;;;;27.10;51.94;95433.75;5008069;28;20285;-65
2023/06/05 09:51:20;;;;;;;10.00;9.10;;;;;;;26.68;52.61;95432.47;5008867;28;20335;-65
2023/06/05 09:53:50;;;;;;;8.95;8.13;;;;;;;26.04;53.30;95430.41;5008546;28;20885;-69
2023/06/05 09:56:20;;;;;;;10.43;8.73;;;;;;;25.77;52.95;95410.25;5007545;28;20284;-67
2023/06/05 09:58:48;;;;;;;9.88;7.72;;;;;;;25.24;53.97;95418.31;5007530;28;22723;-63
2023/06/05 10:01:19;;;;;;;11.20;9.13;;;;;;;24.57;56.63;95436.16;5008003;28;20688;-67
2023/06/05 10:03:51;;;;;;;10.50;8.65;;;;;;;24.11;58.28;95426.94;5006989;28;20771;-68
2023/06/05 10:06:23;;;;;;;11.70;10.23;;;;;;;23.73;59.80;95417.88;5006445;28;20870;-66
2023/06/05 10:08:51;;;;;;;10.80;9.07;;;;;;;23.79;60.88;95415.72;5009204;28;20697;-68
2023/06/05 10:11:20;;;;;;;11.13;10.13;;;;;;;24.37;59.78;95417.03;5007622;28;20249;-67
2023/06/05 10:13:48;;;;;;;10.35;9.23;;;;;;;24.12;57.46;95423.38;5005318;28;20648;-65
2023/06/05 10:16:15;;;;;;;12.00;9.68;;;;;;;23.78;58.79;95419.25;5007852;28;20341;-63
2023/06/05 10:18:42;;;;;;;9.02;8.20;;;;;;;23.59;59.79;95415.53;5008235;28;20207;-68
2023/06/05 10:21:09;;;;;;;9.77;8.85;;;;;;;23.85;59.77;95410.88;5007439;28;20290;-68
2023/06/05 10:23:37;;;;;;;10.80;8.55;;;;;;;24.02;59.10;95417.28;5008459;28;20309;-66
2023/06/05 10:26:14;;;;;;;9.05;8.23;;;;;;;24.05;59.15;95424.81;5007990;28;20685;-64
2023/06/05 10:28:53;;;;;;;7.65;6.85;;;;;;;24.28;57.55;95418.59;5006254;28;21036;-64
2023/06/05 10:31:26;;;;;;;10.90;8.75;;;;;;;24.24;58.21;95418.97;5006415;28;20798;-69
2023/06/05 10:34:04;;;;;;;9.80;8.27;;;;;;;24.27;59.30;95416.97;5006960;28;20241;-70
2023/06/05 10:37:27;;;;;;;10.70;9.27;;;;;;;24.53;58.42;95412.22;5005417;28;20242;-65
2023/06/05 10:39:56;;;;;;;9.80;8.45;;;;;;;24.27;59.53;95411.75;4872117;28;20269;-67
2023/06/05 10:42:26;;;;;;;9.82;8.88;;;;;;;24.45;58.42;95414.63;5001872;28;20215;-69
2023/06/05 10:44:55;;;;;;;9.57;8.63;;;;;;;24.23;57.79;95405.16;5008381;28;20238;-66
2023/06/05 10:47:51;;;;;;;9.43;8.52;;;;;;;24.05;60.19;95402.28;5012518;28;21734;-64
2023/06/05 10:50:27;;;;;;;10.32;8.63;;;;;;;24.32;58.36;95399.22;5009813;28;20231;-70
2023/06/05 10:52:56;;;;;;;10.98;9.38;;;;;;;24.57;58.18;95376.41;5011692;28;20759;-66
2023/06/05 10:55:24;;;;;;;13.85;8.80;;;;;;;24.64;58.48;95387.94;5011443;28;20210;-67
2023/06/05 10:58:08;;;;;;;10.45;9.32;;;;;;;24.30;61.23;95388.13;5012593;28;20737;-66
2023/06/05 11:00:37;;;;;;;12.13;8.98;;;;;;;23.88;60.33;95389.03;5010394;28;20328;-66
2023/06/05 11:03:05;;;;;;;9.50;8.70;;;;;;;24.02;61.87;95386.13;5011488;28;20260;-65
2023/06/05 11:05:32;;;;;;;8.60;7.90;;;;;;;23.97;61.97;95383.09;5011070;28;20234;-69
2023/06/05 11:08:18;;;;;;;11.07;8.10;;;;;;;24.00;60.57;95388.06;5012810;28;20227;-68
2023/06/05 11:11:04;;;;;;;8.90;7.10;;;;;;;23.81;60.38;95387.88;5009250;28;22269;-67
2023/06/05 11:13:54;;;;;;;12.32;8.65;;;;;;;23.59;61.33;95381.81;5011493;28;20252;-66
2023/06/05 11:16:30;;;;;;;8.60;7.70;;;;;;;23.41;62.81;95380.66;5011372;28;20207;-66
2023/06/05 11:19:36;;;;;;;7.10;6.50;;;;;;;22.94;61.59;95392.97;5011054;28;20207;-70
2023/06/05 11:22:04;;;;;;;7.25;6.55;;;;;;;22.54;62.60;95383.94;4995366;28;20206;-65
2023/06/05 11:24:31;;;;;;;7.97;7.28;;;;;;;22.47;64.46;95388.78;5011526;28;20231;-66